createdAt,value
2023-02-09T00:02:57.980Z,77.70
2023-02-09T00:08:01.346Z,73.20
2023-02-09T00:13:24.084Z,72.24
2023-02-09T00:18:28.570Z,68.27
2023-02-09T00:23:32.704Z,66.49
2023-02-09T00:28:39.747Z,63.14
2023-02-09T00:33:45.442Z,61.79
2023-02-09T00:38:49.253Z,61.10
2023-02-09T00:43:54.021Z,61.54
2023-02-09T00:48:58.083Z,62.48
2023-02-09T00:54:01.596Z,63.86
2023-02-09T00:59:06.390Z,62.71
2023-02-09T01:04:10.420Z,60.82
2023-02-09T01:09:16.451Z,61.34
2023-02-09T01:14:24.396Z,60.08
2023-02-09T01:19:27.928Z,60.64
2023-02-09T01:24:31.670Z,60.54
2023-02-09T01:29:39.272Z,60.62
2023-02-09T01:34:42.692Z,60.46
2023-02-09T01:39:50.815Z,59.36
2023-02-09T01:45:07.041Z,61.06
2023-02-09T01:50:14.649Z,62.92
2023-02-09T01:55:24.581Z,66.72
2023-02-09T02:00:31.787Z,64.29
2023-02-09T02:05:41.248Z,63.37
2023-02-09T02:10:45.222Z,63.06
2023-02-09T02:15:59.625Z,62.84
2023-02-09T02:21:21.780Z,63.20
2023-02-09T02:26:45.657Z,62.35
2023-02-09T02:32:06.946Z,62.00
2023-02-09T02:37:17.533Z,60.36
2023-02-09T02:42:42.659Z,60.46
2023-02-09T02:47:51.946Z,59.85
2023-02-09T02:52:58.248Z,59.36
2023-02-09T02:58:07.833Z,57.99
2023-02-09T03:03:16.408Z,57.71
2023-02-09T03:08:19.814Z,56.93
2023-02-09T03:13:35.685Z,56.21
2023-02-09T03:18:48.606Z,57.97
2023-02-09T03:24:00.353Z,57.29
2023-02-09T03:29:04.293Z,57.43
2023-02-09T03:34:10.971Z,56.48
2023-02-09T03:39:15.765Z,56.54
2023-02-09T03:44:27.912Z,58.52
2023-02-09T03:49:34.587Z,51.93
2023-02-09T03:54:41.123Z,52.01
2023-02-09T03:59:44.585Z,55.78
2023-02-09T04:04:53.613Z,56.68
2023-02-09T04:09:59.291Z,56.93
2023-02-09T04:15:03.130Z,57.93
2023-02-09T04:20:08.815Z,56.86
2023-02-09T04:25:12.217Z,57.33
2023-02-09T04:30:20.593Z,55.17
2023-02-09T04:35:25.376Z,53.18
2023-02-09T04:40:28.727Z,52.74
2023-02-09T04:45:32.146Z,51.78
2023-02-09T04:50:37.057Z,51.69
2023-02-09T04:55:40.970Z,52.46
2023-02-09T05:00:44.772Z,51.82
2023-02-09T05:05:49.795Z,52.21
2023-02-09T05:10:53.425Z,51.25
2023-02-09T05:15:56.833Z,51.34
2023-02-09T05:21:01.591Z,51.70
2023-02-09T05:26:05.115Z,53.25
2023-02-09T05:31:10.899Z,53.35
2023-02-09T05:36:17.848Z,54.27
2023-02-09T05:41:35.119Z,54.01
2023-02-09T05:46:38.500Z,52.54
2023-02-09T05:51:43.273Z,55.09
2023-02-09T05:56:49.112Z,54.06
2023-02-09T06:01:54.780Z,59.24
2023-02-09T06:06:59.563Z,57.24
2023-02-09T06:12:05.889Z,56.83
2023-02-09T06:17:11.647Z,58.66
2023-02-09T06:22:16.405Z,57.94
2023-02-09T06:27:19.859Z,59.65
2023-02-09T06:32:25.566Z,57.32
2023-02-09T06:37:30.348Z,55.88
2023-02-09T06:42:44.746Z,58.64
2023-02-09T06:47:51.123Z,60.49
2023-02-09T06:52:59.952Z,61.79
2023-02-09T06:58:03.365Z,58.76
2023-02-09T07:03:09.502Z,68.01
2023-02-09T07:08:14.532Z,66.14
2023-02-09T07:13:17.989Z,63.88
2023-02-09T07:18:24.380Z,59.28
2023-02-09T07:23:31.585Z,63.88
2023-02-09T07:28:36.318Z,63.43
2023-02-09T07:33:42.108Z,64.36
2023-02-09T07:38:46.998Z,62.24
2023-02-09T07:43:50.611Z,62.99
2023-02-09T07:48:54.356Z,65.00
2023-02-09T07:54:01.908Z,64.44
2023-02-09T07:59:13.620Z,68.50
2023-02-09T08:04:19.624Z,65.97
2023-02-09T08:09:27.005Z,65.57
2023-02-09T08:14:39.901Z,62.59
2023-02-09T08:19:46.486Z,63.53
2023-02-09T08:24:51.643Z,63.04
2023-02-09T08:29:55.485Z,66.72
2023-02-09T08:34:58.954Z,65.78
2023-02-09T08:40:06.403Z,65.43
2023-02-09T08:45:10.364Z,63.84
2023-02-09T08:50:16.733Z,64.41
2023-02-09T08:55:23.828Z,63.48
2023-02-09T09:00:27.360Z,66.00
2023-02-09T09:05:32.951Z,65.47
2023-02-09T09:10:37.806Z,63.80
2023-02-09T09:15:45.769Z,64.99
2023-02-09T09:20:51.887Z,68.46
2023-02-09T09:26:01.302Z,64.90
2023-02-09T09:31:10.855Z,64.25
2023-02-09T09:36:16.538Z,64.86
2023-02-09T09:41:26.357Z,66.12
2023-02-09T09:46:34.868Z,65.52
2023-02-09T09:51:41.425Z,67.18
2023-02-09T09:56:46.144Z,67.47
2023-02-09T10:01:51.283Z,66.80
2023-02-09T10:07:00.462Z,67.38
2023-02-09T10:12:17.586Z,65.91
2023-02-09T10:17:21.029Z,65.03
2023-02-09T10:22:26.764Z,65.57
2023-02-09T10:27:34.019Z,65.78
2023-02-09T10:32:44.296Z,67.14
2023-02-09T10:37:56.325Z,67.16
2023-02-09T10:43:03.840Z,62.40
2023-02-09T10:48:18.098Z,54.06
2023-02-09T10:53:23.871Z,52.58
2023-02-09T10:58:32.935Z,50.50
2023-02-09T11:03:37.053Z,50.57
2023-02-09T11:08:45.155Z,46.89
2023-02-09T11:13:49.902Z,39.15
2023-02-09T11:18:58.374Z,38.38
2023-02-09T11:24:08.422Z,40.58
2023-02-09T11:29:21.404Z,38.80
2023-02-09T11:34:45.695Z,40.79
2023-02-09T11:39:56.938Z,43.63
2023-02-09T11:45:06.775Z,43.40
2023-02-09T11:50:19.610Z,43.83
2023-02-09T11:55:28.011Z,45.80
2023-02-09T12:00:53.233Z,46.24
2023-02-09T12:05:58.298Z,43.40
2023-02-09T12:11:13.314Z,42.72
2023-02-09T12:16:21.923Z,42.78
2023-02-09T12:21:30.180Z,39.18
2023-02-09T12:26:43.200Z,38.83
2023-02-09T12:32:06.162Z,37.51
2023-02-09T12:37:27.430Z,37.36
2023-02-09T12:42:39.573Z,37.52
2023-02-09T12:47:48.055Z,36.22
2023-02-09T12:53:10.048Z,34.90
2023-02-09T12:58:32.262Z,33.07
2023-02-09T13:03:45.058Z,34.00
2023-02-09T13:08:54.788Z,36.79
2023-02-09T13:14:04.396Z,34.40
2023-02-09T13:19:19.228Z,35.01
2023-02-09T13:24:25.656Z,35.00
2023-02-09T13:29:30.371Z,31.91
2023-02-09T13:34:40.119Z,27.54
2023-02-09T13:39:44.250Z,42.61
2023-02-09T13:44:52.139Z,28.93
2023-02-09T13:50:01.700Z,26.67
2023-02-09T13:55:12.974Z,34.82
2023-02-09T14:00:22.352Z,28.21
2023-02-09T14:05:42.471Z,28.25
2023-02-09T14:10:51.416Z,28.22
2023-02-09T14:16:07.908Z,26.66
2023-02-09T14:21:31.158Z,27.45
2023-02-09T14:26:38.152Z,25.45
2023-02-09T14:31:44.656Z,25.77
2023-02-09T14:36:53.767Z,27.90
2023-02-09T14:41:58.565Z,32.08
2023-02-09T14:47:04.286Z,25.89
2023-02-09T14:52:14.785Z,26.77
2023-02-09T14:57:20.278Z,27.34
2023-02-09T15:02:26.185Z,28.76
2023-02-09T15:07:36.036Z,29.45
2023-02-09T15:12:39.464Z,30.23
2023-02-09T15:17:42.980Z,30.32
2023-02-09T15:22:47.981Z,28.66
2023-02-09T15:27:53.853Z,31.07
2023-02-09T15:32:57.333Z,29.13
2023-02-09T15:38:04.416Z,27.99
2023-02-09T15:43:32.800Z,29.37
2023-02-09T15:48:38.443Z,30.42
2023-02-09T15:53:47.232Z,31.90
2023-02-09T15:58:52.235Z,32.26
2023-02-09T16:04:12.875Z,55.77
2023-02-09T16:09:24.936Z,35.40
2023-02-09T16:14:31.735Z,36.01
2023-02-09T16:19:37.365Z,32.60
2023-02-09T16:24:46.568Z,34.94
2023-02-09T16:29:49.980Z,32.82
2023-02-09T16:35:11.085Z,34.98
2023-02-09T16:40:27.797Z,34.87
2023-02-09T16:45:37.164Z,33.84
2023-02-09T16:50:42.204Z,34.42
2023-02-09T16:55:50.413Z,39.13
2023-02-09T17:00:54.567Z,36.82
2023-02-09T17:06:02.375Z,36.28
2023-02-09T17:11:16.425Z,36.72
2023-02-09T17:16:21.837Z,43.61
2023-02-09T17:21:27.158Z,38.91
2023-02-09T17:26:32.282Z,36.93
2023-02-09T17:31:51.858Z,35.68
2023-02-09T17:36:56.240Z,35.94
2023-02-09T17:42:01.219Z,35.91
2023-02-09T17:47:10.073Z,36.01
2023-02-09T17:52:17.502Z,35.65
2023-02-09T17:57:27.614Z,55.16
2023-02-09T18:02:33.291Z,37.68
2023-02-09T18:07:36.730Z,37.23
2023-02-09T18:12:44.254Z,40.00
2023-02-09T18:17:47.774Z,45.61
2023-02-09T18:22:52.274Z,42.52
2023-02-09T18:27:59.970Z,39.92
2023-02-09T18:33:03.907Z,51.44
2023-02-09T18:38:11.170Z,40.23
2023-02-09T18:43:18.157Z,40.06
2023-02-09T18:48:21.656Z,40.62
2023-02-09T18:53:25.148Z,45.69
2023-02-09T18:58:30.159Z,43.60
2023-02-09T19:03:33.594Z,41.95
2023-02-09T19:08:37.276Z,44.83
2023-02-09T19:14:07.601Z,41.16
2023-02-09T19:19:12.603Z,41.73
2023-02-09T19:24:18.432Z,43.84
2023-02-09T19:29:25.700Z,46.20
2023-02-09T19:34:32.265Z,46.02
2023-02-09T19:39:38.514Z,44.88
2023-02-09T19:44:43.331Z,45.47
2023-02-09T19:49:49.079Z,45.05
2023-02-09T19:54:53.129Z,47.14
2023-02-09T20:00:00.335Z,47.06
2023-02-09T20:05:07.587Z,47.03
2023-02-09T20:10:13.171Z,48.28
2023-02-09T20:15:20.695Z,50.21
2023-02-09T20:20:24.308Z,48.96
2023-02-09T20:25:27.757Z,47.84
2023-02-09T20:30:35.119Z,52.09
2023-02-09T20:35:40.107Z,47.79
2023-02-09T20:40:43.885Z,46.24
2023-02-09T20:46:06.369Z,46.07
2023-02-09T20:51:12.201Z,47.12
2023-02-09T20:56:15.701Z,49.35
2023-02-09T21:01:23.266Z,48.59
2023-02-09T21:06:27.710Z,47.24
2023-02-09T21:11:33.889Z,48.55
2023-02-09T21:16:42.707Z,47.74
2023-02-09T21:21:46.466Z,46.84
2023-02-09T21:26:49.977Z,47.56
2023-02-09T21:31:55.176Z,46.70
2023-02-09T21:37:01.163Z,47.02
2023-02-09T21:42:24.579Z,46.19
2023-02-09T21:47:31.118Z,46.92
2023-02-09T21:52:35.071Z,44.38
2023-02-09T21:57:40.671Z,42.95
2023-02-09T22:02:45.776Z,42.34
2023-02-09T22:07:49.946Z,41.85
2023-02-09T22:12:53.525Z,40.87
2023-02-09T22:17:58.344Z,40.51
2023-02-09T22:23:01.707Z,40.63
2023-02-09T22:28:05.574Z,40.14
2023-02-09T22:33:10.339Z,41.05
2023-02-09T22:38:16.775Z,40.00
2023-02-09T22:43:20.177Z,40.51
2023-02-09T22:48:25.085Z,39.85
2023-02-09T22:53:28.461Z,40.49
2023-02-09T22:58:34.448Z,42.28
2023-02-09T23:03:39.314Z,40.69
2023-02-09T23:08:42.698Z,40.67
2023-02-09T23:13:51.085Z,38.81
2023-02-09T23:19:06.389Z,38.83
2023-02-09T23:24:10.181Z,38.33
2023-02-09T23:29:15.128Z,36.27
2023-02-09T23:34:23.510Z,34.67
2023-02-09T23:39:29.055Z,34.98
2023-02-09T23:44:32.589Z,34.34
2023-02-09T23:49:37.790Z,33.84
2023-02-09T23:54:41.218Z,33.78
2023-02-09T23:59:44.581Z,35.35
